sensor_id;sensor_type;location;lat;lon;timestamp;P1;durP1;ratioP1;P2;durP2;ratioP2
45043;SDS011;30784;48.490;9.688;2023-05-10T00:00:39;2.10;;;0.57;;
45043;SDS011;30784;48.490;9.688;2023-05-10T00:03:05;2.28;;;0.65;;
45043;SDS011;30784;48.490;9.688;2023-05-10T00:05:34;1.88;;;0.52;;
45043;SDS011;30784;48.490;9.688;2023-05-10T00:08:00;3.13;;;0.85;;
45043;SDS011;30784;48.490;9.688;2023-05-10T00:10:28;1.92;;;0.60;;
45043;SDS011;30784;48.490;9.688;2023-05-10T00:12:54;1.38;;;0.40;;
45043;SDS011;30784;48.490;9.688;2023-05-10T00:15:20;0.82;;;0.35;;
45043;SDS011;30784;48.490;9.688;2023-05-10T00:17:47;0.75;;;0.35;;
45043;SDS011;30784;48.490;9.688;2023-05-10T00:20:13;1.17;;;0.47;;
45043;SDS011;30784;48.490;9.688;2023-05-10T00:22:40;1.10;;;0.40;;
45043;SDS011;30784;48.490;9.688;2023-05-10T00:25:07;1.90;;;0.40;;
45043;SDS011;30784;48.490;9.688;2023-05-10T00:27:33;1.77;;;0.38;;
45043;SDS011;30784;48.490;9.688;2023-05-10T00:29:58;0.82;;;0.20;;
45043;SDS011;30784;48.490;9.688;2023-05-10T00:32:24;0.93;;;0.30;;
45043;SDS011;30784;48.490;9.688;2023-05-10T00:34:49;0.47;;;0.20;;
45043;SDS011;30784;48.490;9.688;2023-05-10T00:37:15;3.25;;;0.20;;
45043;SDS011;30784;48.490;9.688;2023-05-10T00:39:41;0.55;;;0.30;;
45043;SDS011;30784;48.490;9.688;2023-05-10T00:42:07;0.77;;;0.30;;
45043;SDS011;30784;48.490;9.688;2023-05-10T00:44:32;0.82;;;0.30;;
45043;SDS011;30784;48.490;9.688;2023-05-10T00:46:58;0.70;;;0.30;;
45043;SDS011;30784;48.490;9.688;2023-05-10T00:49:24;0.95;;;0.30;;
45043;SDS011;30784;48.490;9.688;2023-05-10T00:51:50;1.52;;;0.30;;
45043;SDS011;30784;48.490;9.688;2023-05-10T00:54:15;0.65;;;0.20;;
45043;SDS011;30784;48.490;9.688;2023-05-10T00:56:41;0.63;;;0.22;;
45043;SDS011;30784;48.490;9.688;2023-05-10T00:59:08;0.68;;;0.20;;
45043;SDS011;30784;48.490;9.688;2023-05-10T01:01:34;0.35;;;0.20;;
45043;SDS011;30784;48.490;9.688;2023-05-10T01:04:00;1.02;;;0.20;;
45043;SDS011;30784;48.490;9.688;2023-05-10T01:06:27;0.70;;;0.05;;
45043;SDS011;30784;48.490;9.688;2023-05-10T01:08:53;0.20;;;0.10;;
45043;SDS011;30784;48.490;9.688;2023-05-10T01:11:19;0.60;;;0.10;;
45043;SDS011;30784;48.490;9.688;2023-05-10T01:13:45;0.10;;;0.00;;
45043;SDS011;30784;48.490;9.688;2023-05-10T01:16:17;0.10;;;0.03;;
45043;SDS011;30784;48.490;9.688;2023-05-10T01:18:43;0.38;;;0.08;;
45043;SDS011;30784;48.490;9.688;2023-05-10T01:23:37;1.38;;;0.10;;
45043;SDS011;30784;48.490;9.688;2023-05-10T01:34:20;0.00;;;0.00;;
45043;SDS011;30784;48.490;9.688;2023-05-10T01:36:55;0.08;;;0.00;;
45043;SDS011;30784;48.490;9.688;2023-05-10T01:42:21;0.08;;;0.00;;
45043;SDS011;30784;48.490;9.688;2023-05-10T01:45:08;0.08;;;0.00;;
45043;SDS011;30784;48.490;9.688;2023-05-10T01:48:02;0.00;;;0.00;;
45043;SDS011;30784;48.490;9.688;2023-05-10T01:50:34;0.10;;;0.00;;
45043;SDS011;30784;48.490;9.688;2023-05-10T01:53:02;0.00;;;0.00;;
45043;SDS011;30784;48.490;9.688;2023-05-10T01:55:32;1.98;;;0.10;;
45043;SDS011;30784;48.490;9.688;2023-05-10T01:58:07;0.10;;;0.00;;
45043;SDS011;30784;48.490;9.688;2023-05-10T02:00:39;1.45;;;0.00;;
45043;SDS011;30784;48.490;9.688;2023-05-10T02:03:07;0.00;;;0.00;;
45043;SDS011;30784;48.490;9.688;2023-05-10T02:05:35;1.98;;;0.10;;
45043;SDS011;30784;48.490;9.688;2023-05-10T02:08:03;0.00;;;0.00;;
45043;SDS011;30784;48.490;9.688;2023-05-10T02:10:32;0.20;;;0.00;;
45043;SDS011;30784;48.490;9.688;2023-05-10T02:13:01;1.75;;;0.10;;
45043;SDS011;30784;48.490;9.688;2023-05-10T02:15:28;0.10;;;0.03;;
45043;SDS011;30784;48.490;9.688;2023-05-10T02:17:54;0.68;;;0.10;;
45043;SDS011;30784;48.490;9.688;2023-05-10T02:20:21;0.82;;;0.00;;
45043;SDS011;30784;48.490;9.688;2023-05-10T02:22:49;0.20;;;0.00;;
45043;SDS011;30784;48.490;9.688;2023-05-10T02:25:17;0.98;;;0.00;;
45043;SDS011;30784;48.490;9.688;2023-05-10T02:27:46;0.52;;;0.10;;
45043;SDS011;30784;48.490;9.688;2023-05-10T02:30:13;0.52;;;0.08;;
45043;SDS011;30784;48.490;9.688;2023-05-10T02:32:39;1.55;;;0.50;;
45043;SDS011;30784;48.490;9.688;2023-05-10T02:35:06;1.27;;;0.50;;
45043;SDS011;30784;48.490;9.688;2023-05-10T02:37:33;1.13;;;0.20;;
45043;SDS011;30784;48.490;9.688;2023-05-10T02:40:00;0.10;;;0.10;;
45043;SDS011;30784;48.490;9.688;2023-05-10T02:42:28;0.10;;;0.00;;
45043;SDS011;30784;48.490;9.688;2023-05-10T02:44:59;0.55;;;0.10;;
45043;SDS011;30784;48.490;9.688;2023-05-10T02:47:28;0.17;;;0.10;;
45043;SDS011;30784;48.490;9.688;2023-05-10T02:49:54;0.50;;;0.13;;
45043;SDS011;30784;48.490;9.688;2023-05-10T02:52:21;1.35;;;0.20;;
45043;SDS011;30784;48.490;9.688;2023-05-10T02:54:52;0.10;;;0.10;;
45043;SDS011;30784;48.490;9.688;2023-05-10T02:57:24;2.45;;;0.20;;
45043;SDS011;30784;48.490;9.688;2023-05-10T02:59:52;0.50;;;0.17;;
45043;SDS011;30784;48.490;9.688;2023-05-10T03:02:17;0.22;;;0.20;;
45043;SDS011;30784;48.490;9.688;2023-05-10T03:04:43;1.08;;;0.25;;
45043;SDS011;30784;48.490;9.688;2023-05-10T03:07:09;0.60;;;0.10;;
45043;SDS011;30784;48.490;9.688;2023-05-10T03:09:35;0.52;;;0.20;;
45043;SDS011;30784;48.490;9.688;2023-05-10T03:20:56;0.50;;;0.30;;
45043;SDS011;30784;48.490;9.688;2023-05-10T03:23:27;1.80;;;0.32;;
45043;SDS011;30784;48.490;9.688;2023-05-10T03:25:59;1.10;;;0.30;;
45043;SDS011;30784;48.490;9.688;2023-05-10T03:28:25;2.15;;;0.30;;
45043;SDS011;30784;48.490;9.688;2023-05-10T03:30:52;0.50;;;0.30;;
45043;SDS011;30784;48.490;9.688;2023-05-10T03:33:19;0.77;;;0.20;;
45043;SDS011;30784;48.490;9.688;2023-05-10T03:35:45;0.75;;;0.30;;
45043;SDS011;30784;48.490;9.688;2023-05-10T03:38:11;1.92;;;0.30;;
45043;SDS011;30784;48.490;9.688;2023-05-10T03:40:37;1.00;;;0.30;;
45043;SDS011;30784;48.490;9.688;2023-05-10T03:43:02;1.38;;;0.47;;
45043;SDS011;30784;48.490;9.688;2023-05-10T03:45:28;0.70;;;0.30;;
45043;SDS011;30784;48.490;9.688;2023-05-10T03:47:55;1.13;;;0.40;;
45043;SDS011;30784;48.490;9.688;2023-05-10T03:50:22;1.33;;;0.40;;
45043;SDS011;30784;48.490;9.688;2023-05-10T03:52:48;1.17;;;0.35;;
45043;SDS011;30784;48.490;9.688;2023-05-10T03:55:14;1.38;;;0.57;;
45043;SDS011;30784;48.490;9.688;2023-05-10T03:57:39;4.00;;;0.50;;
45043;SDS011;30784;48.490;9.688;2023-05-10T04:00:05;0.82;;;0.20;;
45043;SDS011;30784;48.490;9.688;2023-05-10T04:02:31;0.73;;;0.30;;
45043;SDS011;30784;48.490;9.688;2023-05-10T04:04:57;1.17;;;0.40;;
45043;SDS011;30784;48.490;9.688;2023-05-10T04:07:22;1.27;;;0.40;;
45043;SDS011;30784;48.490;9.688;2023-05-10T04:09:48;1.95;;;0.70;;
45043;SDS011;30784;48.490;9.688;2023-05-10T04:12:13;3.92;;;0.75;;
45043;SDS011;30784;48.490;9.688;2023-05-10T04:14:39;4.18;;;1.17;;
45043;SDS011;30784;48.490;9.688;2023-05-10T04:17:04;3.67;;;1.08;;
45043;SDS011;30784;48.490;9.688;2023-05-10T04:19:30;3.30;;;1.00;;
45043;SDS011;30784;48.490;9.688;2023-05-10T04:21:56;2.03;;;0.60;;
45043;SDS011;30784;48.490;9.688;2023-05-10T04:24:22;1.63;;;0.70;;
45043;SDS011;30784;48.490;9.688;2023-05-10T04:26:48;2.78;;;0.70;;
45043;SDS011;30784;48.490;9.688;2023-05-10T04:29:13;2.10;;;0.43;;
45043;SDS011;30784;48.490;9.688;2023-05-10T04:31:39;1.20;;;0.50;;
45043;SDS011;30784;48.490;9.688;2023-05-10T04:34:04;1.70;;;0.40;;
45043;SDS011;30784;48.490;9.688;2023-05-10T04:36:30;0.47;;;0.25;;
45043;SDS011;30784;48.490;9.688;2023-05-10T04:38:57;0.65;;;0.30;;
45043;SDS011;30784;48.490;9.688;2023-05-10T04:41:23;1.75;;;0.60;;
45043;SDS011;30784;48.490;9.688;2023-05-10T04:43:49;0.88;;;0.30;;
45043;SDS011;30784;48.490;9.688;2023-05-10T04:46:15;0.88;;;0.30;;
45043;SDS011;30784;48.490;9.688;2023-05-10T04:48:40;0.68;;;0.40;;
45043;SDS011;30784;48.490;9.688;2023-05-10T04:51:06;0.60;;;0.40;;
45043;SDS011;30784;48.490;9.688;2023-05-10T04:53:32;1.13;;;0.50;;
45043;SDS011;30784;48.490;9.688;2023-05-10T04:55:58;0.85;;;0.32;;
45043;SDS011;30784;48.490;9.688;2023-05-10T04:58:23;1.25;;;0.40;;
45043;SDS011;30784;48.490;9.688;2023-05-10T05:00:49;0.98;;;0.32;;
45043;SDS011;30784;48.490;9.688;2023-05-10T05:03:14;1.00;;;0.40;;
45043;SDS011;30784;48.490;9.688;2023-05-10T05:05:40;1.55;;;0.68;;
45043;SDS011;30784;48.490;9.688;2023-05-10T05:08:05;0.75;;;0.35;;
45043;SDS011;30784;48.490;9.688;2023-05-10T05:10:31;1.83;;;0.50;;
45043;SDS011;30784;48.490;9.688;2023-05-10T05:12:56;0.93;;;0.40;;
45043;SDS011;30784;48.490;9.688;2023-05-10T05:15:22;1.00;;;0.30;;
45043;SDS011;30784;48.490;9.688;2023-05-10T05:17:48;2.40;;;0.50;;
45043;SDS011;30784;48.490;9.688;2023-05-10T05:20:13;1.55;;;0.40;;
45043;SDS011;30784;48.490;9.688;2023-05-10T05:22:39;2.65;;;0.40;;
45043;SDS011;30784;48.490;9.688;2023-05-10T05:25:04;0.68;;;0.20;;
45043;SDS011;30784;48.490;9.688;2023-05-10T05:27:31;0.90;;;0.45;;
45043;SDS011;30784;48.490;9.688;2023-05-10T05:29:57;1.05;;;0.30;;
45043;SDS011;30784;48.490;9.688;2023-05-10T05:32:23;0.93;;;0.30;;
45043;SDS011;30784;48.490;9.688;2023-05-10T05:34:48;1.55;;;0.43;;
45043;SDS011;30784;48.490;9.688;2023-05-10T05:37:18;1.08;;;0.40;;
45043;SDS011;30784;48.490;9.688;2023-05-10T05:39:45;1.52;;;0.45;;
45043;SDS011;30784;48.490;9.688;2023-05-10T05:42:11;1.75;;;0.50;;
45043;SDS011;30784;48.490;9.688;2023-05-10T05:44:38;1.25;;;0.30;;
45043;SDS011;30784;48.490;9.688;2023-05-10T05:47:04;2.20;;;0.40;;
45043;SDS011;30784;48.490;9.688;2023-05-10T05:49:30;0.75;;;0.20;;
45043;SDS011;30784;48.490;9.688;2023-05-10T05:51:59;2.10;;;0.80;;
45043;SDS011;30784;48.490;9.688;2023-05-10T05:54:25;1.80;;;0.40;;
45043;SDS011;30784;48.490;9.688;2023-05-10T05:56:55;0.60;;;0.30;;
45043;SDS011;30784;48.490;9.688;2023-05-10T05:59:24;0.93;;;0.40;;
45043;SDS011;30784;48.490;9.688;2023-05-10T06:01:49;1.23;;;0.50;;
45043;SDS011;30784;48.490;9.688;2023-05-10T06:04:16;2.17;;;0.40;;
45043;SDS011;30784;48.490;9.688;2023-05-10T06:06:42;0.95;;;0.40;;
45043;SDS011;30784;48.490;9.688;2023-05-10T06:09:07;0.95;;;0.40;;
45043;SDS011;30784;48.490;9.688;2023-05-10T06:11:33;1.25;;;0.40;;
45043;SDS011;30784;48.490;9.688;2023-05-10T06:13:59;1.13;;;0.45;;
45043;SDS011;30784;48.490;9.688;2023-05-10T06:16:25;1.08;;;0.40;;
45043;SDS011;30784;48.490;9.688;2023-05-10T06:18:51;1.15;;;0.47;;
45043;SDS011;30784;48.490;9.688;2023-05-10T06:21:16;1.45;;;0.50;;
45043;SDS011;30784;48.490;9.688;2023-05-10T06:23:42;3.17;;;0.65;;
45043;SDS011;30784;48.490;9.688;2023-05-10T06:26:08;1.27;;;0.50;;
45043;SDS011;30784;48.490;9.688;2023-05-10T06:28:34;7.63;;;3.80;;
45043;SDS011;30784;48.490;9.688;2023-05-10T06:31:02;8.68;;;2.80;;
45043;SDS011;30784;48.490;9.688;2023-05-10T06:33:28;5.10;;;1.52;;
45043;SDS011;30784;48.490;9.688;2023-05-10T06:35:54;3.50;;;0.95;;
45043;SDS011;30784;48.490;9.688;2023-05-10T06:38:19;2.97;;;0.95;;
45043;SDS011;30784;48.490;9.688;2023-05-10T06:40:45;2.85;;;0.80;;
45043;SDS011;30784;48.490;9.688;2023-05-10T06:43:10;3.22;;;0.88;;
45043;SDS011;30784;48.490;9.688;2023-05-10T06:45:36;3.03;;;0.80;;
45043;SDS011;30784;48.490;9.688;2023-05-10T06:48:01;4.15;;;1.02;;
45043;SDS011;30784;48.490;9.688;2023-05-10T06:50:27;2.13;;;0.80;;
45043;SDS011;30784;48.490;9.688;2023-05-10T06:52:53;1.33;;;0.60;;
45043;SDS011;30784;48.490;9.688;2023-05-10T06:55:18;3.35;;;0.70;;
45043;SDS011;30784;48.490;9.688;2023-05-10T06:57:44;1.95;;;0.68;;
45043;SDS011;30784;48.490;9.688;2023-05-10T07:00:09;1.63;;;0.70;;
45043;SDS011;30784;48.490;9.688;2023-05-10T07:02:35;1.13;;;0.50;;
45043;SDS011;30784;48.490;9.688;2023-05-10T07:05:01;4.30;;;0.80;;
45043;SDS011;30784;48.490;9.688;2023-05-10T07:07:27;2.28;;;0.60;;
45043;SDS011;30784;48.490;9.688;2023-05-10T07:09:52;1.35;;;0.57;;
45043;SDS011;30784;48.490;9.688;2023-05-10T07:12:18;2.63;;;0.77;;
45043;SDS011;30784;48.490;9.688;2023-05-10T07:14:44;2.05;;;0.47;;
45043;SDS011;30784;48.490;9.688;2023-05-10T07:17:09;2.72;;;0.60;;
45043;SDS011;30784;48.490;9.688;2023-05-10T07:19:35;0.75;;;0.40;;
45043;SDS011;30784;48.490;9.688;2023-05-10T07:22:00;1.83;;;0.50;;
45043;SDS011;30784;48.490;9.688;2023-05-10T07:24:26;2.28;;;0.52;;
45043;SDS011;30784;48.490;9.688;2023-05-10T07:26:52;0.95;;;0.40;;
45043;SDS011;30784;48.490;9.688;2023-05-10T07:29:17;2.03;;;0.60;;
45043;SDS011;30784;48.490;9.688;2023-05-10T07:31:43;2.40;;;0.70;;
45043;SDS011;30784;48.490;9.688;2023-05-10T07:34:08;1.05;;;0.47;;
45043;SDS011;30784;48.490;9.688;2023-05-10T07:36:34;1.15;;;0.40;;
45043;SDS011;30784;48.490;9.688;2023-05-10T07:39:00;1.05;;;0.30;;
45043;SDS011;30784;48.490;9.688;2023-05-10T07:41:25;3.47;;;0.70;;
45043;SDS011;30784;48.490;9.688;2023-05-10T07:43:52;1.90;;;0.50;;
45043;SDS011;30784;48.490;9.688;2023-05-10T07:46:17;1.35;;;0.40;;
45043;SDS011;30784;48.490;9.688;2023-05-10T07:48:44;2.08;;;0.60;;
45043;SDS011;30784;48.490;9.688;2023-05-10T07:51:10;3.78;;;0.90;;
45043;SDS011;30784;48.490;9.688;2023-05-10T07:53:35;5.40;;;1.27;;
45043;SDS011;30784;48.490;9.688;2023-05-10T07:56:19;2.53;;;0.70;;
45043;SDS011;30784;48.490;9.688;2023-05-10T07:58:45;2.22;;;0.60;;
45043;SDS011;30784;48.490;9.688;2023-05-10T08:01:10;1.42;;;0.50;;
45043;SDS011;30784;48.490;9.688;2023-05-10T08:03:36;2.15;;;0.60;;
45043;SDS011;30784;48.490;9.688;2023-05-10T08:06:01;1.58;;;0.50;;
45043;SDS011;30784;48.490;9.688;2023-05-10T08:08:28;2.47;;;0.55;;
45043;SDS011;30784;48.490;9.688;2023-05-10T08:10:53;2.70;;;0.40;;
45043;SDS011;30784;48.490;9.688;2023-05-10T08:13:19;2.70;;;0.60;;
45043;SDS011;30784;48.490;9.688;2023-05-10T08:15:46;2.08;;;0.73;;
45043;SDS011;30784;48.490;9.688;2023-05-10T08:18:12;2.75;;;0.60;;
45043;SDS011;30784;48.490;9.688;2023-05-10T08:20:37;2.58;;;0.77;;
45043;SDS011;30784;48.490;9.688;2023-05-10T08:23:03;1.65;;;0.60;;
45043;SDS011;30784;48.490;9.688;2023-05-10T08:25:28;2.90;;;0.60;;
45043;SDS011;30784;48.490;9.688;2023-05-10T08:27:54;1.55;;;0.50;;
45043;SDS011;30784;48.490;9.688;2023-05-10T08:30:22;1.23;;;0.50;;
45043;SDS011;30784;48.490;9.688;2023-05-10T08:32:48;0.82;;;0.30;;
45043;SDS011;30784;48.490;9.688;2023-05-10T08:35:13;1.00;;;0.30;;
45043;SDS011;30784;48.490;9.688;2023-05-10T08:37:40;0.63;;;0.38;;
45043;SDS011;30784;48.490;9.688;2023-05-10T08:40:06;1.63;;;0.30;;
45043;SDS011;30784;48.490;9.688;2023-05-10T08:42:34;0.88;;;0.32;;
45043;SDS011;30784;48.490;9.688;2023-05-10T08:47:32;0.80;;;0.30;;
45043;SDS011;30784;48.490;9.688;2023-05-10T08:49:57;1.45;;;0.50;;
45043;SDS011;30784;48.490;9.688;2023-05-10T08:52:24;1.05;;;0.20;;
45043;SDS011;30784;48.490;9.688;2023-05-10T08:54:51;1.27;;;0.30;;
45043;SDS011;30784;48.490;9.688;2023-05-10T08:57:17;1.40;;;0.30;;
45043;SDS011;30784;48.490;9.688;2023-05-10T08:59:43;0.68;;;0.20;;
45043;SDS011;30784;48.490;9.688;2023-05-10T09:02:09;1.17;;;0.20;;
45043;SDS011;30784;48.490;9.688;2023-05-10T09:04:36;0.40;;;0.17;;
45043;SDS011;30784;48.490;9.688;2023-05-10T09:07:02;0.85;;;0.38;;
45043;SDS011;30784;48.490;9.688;2023-05-10T09:09:27;0.60;;;0.20;;
45043;SDS011;30784;48.490;9.688;2023-05-10T09:11:53;0.43;;;0.20;;
45043;SDS011;30784;48.490;9.688;2023-05-10T09:14:20;0.65;;;0.22;;
45043;SDS011;30784;48.490;9.688;2023-05-10T09:16:49;1.23;;;0.35;;
45043;SDS011;30784;48.490;9.688;2023-05-10T09:19:15;3.38;;;1.08;;
45043;SDS011;30784;48.490;9.688;2023-05-10T09:21:40;1.83;;;0.55;;
45043;SDS011;30784;48.490;9.688;2023-05-10T09:24:06;1.45;;;0.35;;
45043;SDS011;30784;48.490;9.688;2023-05-10T09:26:33;0.93;;;0.22;;
45043;SDS011;30784;48.490;9.688;2023-05-10T09:29:00;0.95;;;0.30;;
45043;SDS011;30784;48.490;9.688;2023-05-10T09:34:16;1.17;;;0.30;;
45043;SDS011;30784;48.490;9.688;2023-05-10T09:37:16;0.98;;;0.15;;
45043;SDS011;30784;48.490;9.688;2023-05-10T09:39:36;1.38;;;0.40;;
45043;SDS011;30784;48.490;9.688;2023-05-10T09:42:03;0.20;;;0.10;;
45043;SDS011;30784;48.490;9.688;2023-05-10T09:44:31;0.75;;;0.20;;
45043;SDS011;30784;48.490;9.688;2023-05-10T09:46:58;0.73;;;0.30;;
45043;SDS011;30784;48.490;9.688;2023-05-10T09:49:24;2.40;;;0.38;;
45043;SDS011;30784;48.490;9.688;2023-05-10T09:52:03;1.83;;;0.28;;
45043;SDS011;30784;48.490;9.688;2023-05-10T09:54:29;1.80;;;0.50;;
45043;SDS011;30784;48.490;9.688;2023-05-10T09:56:55;2.75;;;0.50;;
45043;SDS011;30784;48.490;9.688;2023-05-10T09:59:21;1.10;;;0.40;;
45043;SDS011;30784;48.490;9.688;2023-05-10T10:01:49;1.48;;;0.60;;
45043;SDS011;30784;48.490;9.688;2023-05-10T10:04:16;1.45;;;0.43;;
45043;SDS011;30784;48.490;9.688;2023-05-10T10:06:42;1.70;;;0.50;;
45043;SDS011;30784;48.490;9.688;2023-05-10T10:09:08;0.85;;;0.30;;
45043;SDS011;30784;48.490;9.688;2023-05-10T10:11:35;0.65;;;0.25;;
45043;SDS011;30784;48.490;9.688;2023-05-10T10:14:01;1.52;;;0.30;;
45043;SDS011;30784;48.490;9.688;2023-05-10T10:16:30;1.02;;;0.40;;
45043;SDS011;30784;48.490;9.688;2023-05-10T10:18:57;1.53;;;0.40;;
45043;SDS011;30784;48.490;9.688;2023-05-10T10:21:22;1.90;;;0.47;;
45043;SDS011;30784;48.490;9.688;2023-05-10T10:23:49;1.58;;;0.32;;
45043;SDS011;30784;48.490;9.688;2023-05-10T10:26:15;1.38;;;0.30;;
45043;SDS011;30784;48.490;9.688;2023-05-10T10:31:47;2.20;;;0.50;;
45043;SDS011;30784;48.490;9.688;2023-05-10T10:34:33;1.23;;;0.43;;
45043;SDS011;30784;48.490;9.688;2023-05-10T10:37:03;1.15;;;0.50;;
45043;SDS011;30784;48.490;9.688;2023-05-10T10:39:30;1.08;;;0.35;;
45043;SDS011;30784;48.490;9.688;2023-05-10T10:41:56;2.97;;;0.50;;
45043;SDS011;30784;48.490;9.688;2023-05-10T10:52:39;1.10;;;0.40;;
45043;SDS011;30784;48.490;9.688;2023-05-10T10:55:09;2.47;;;0.50;;
45043;SDS011;30784;48.490;9.688;2023-05-10T10:57:54;2.40;;;0.50;;
45043;SDS011;30784;48.490;9.688;2023-05-10T11:00:31;2.85;;;0.70;;
45043;SDS011;30784;48.490;9.688;2023-05-10T11:03:04;1.95;;;0.30;;
45043;SDS011;30784;48.490;9.688;2023-05-10T11:05:36;1.23;;;0.40;;
45043;SDS011;30784;48.490;9.688;2023-05-10T11:10:35;1.67;;;0.40;;
45043;SDS011;30784;48.490;9.688;2023-05-10T11:13:10;1.88;;;0.50;;
45043;SDS011;30784;48.490;9.688;2023-05-10T11:15:36;1.48;;;0.45;;
45043;SDS011;30784;48.490;9.688;2023-05-10T11:18:16;1.35;;;0.30;;
45043;SDS011;30784;48.490;9.688;2023-05-10T11:20:52;0.70;;;0.30;;
45043;SDS011;30784;48.490;9.688;2023-05-10T11:23:23;1.45;;;0.30;;
45043;SDS011;30784;48.490;9.688;2023-05-10T11:25:49;0.47;;;0.20;;
45043;SDS011;30784;48.490;9.688;2023-05-10T11:28:16;0.70;;;0.30;;
45043;SDS011;30784;48.490;9.688;2023-05-10T11:30:43;2.38;;;0.43;;
45043;SDS011;30784;48.490;9.688;2023-05-10T11:33:09;3.80;;;1.00;;
45043;SDS011;30784;48.490;9.688;2023-05-10T11:35:41;2.55;;;0.80;;
45043;SDS011;30784;48.490;9.688;2023-05-10T11:38:07;2.75;;;0.57;;
45043;SDS011;30784;48.490;9.688;2023-05-10T11:40:34;2.35;;;0.20;;
45043;SDS011;30784;48.490;9.688;2023-05-10T11:43:00;0.75;;;0.20;;
45043;SDS011;30784;48.490;9.688;2023-05-10T11:45:26;1.02;;;0.20;;
45043;SDS011;30784;48.490;9.688;2023-05-10T11:47:52;0.80;;;0.30;;
45043;SDS011;30784;48.490;9.688;2023-05-10T11:50:18;1.40;;;0.38;;
45043;SDS011;30784;48.490;9.688;2023-05-10T11:52:44;0.77;;;0.30;;
45043;SDS011;30784;48.490;9.688;2023-05-10T11:55:09;0.60;;;0.30;;
45043;SDS011;30784;48.490;9.688;2023-05-10T11:57:35;1.45;;;0.25;;
45043;SDS011;30784;48.490;9.688;2023-05-10T12:00:03;1.42;;;0.40;;
45043;SDS011;30784;48.490;9.688;2023-05-10T12:02:30;2.33;;;0.32;;
45043;SDS011;30784;48.490;9.688;2023-05-10T12:04:55;0.68;;;0.20;;
45043;SDS011;30784;48.490;9.688;2023-05-10T12:07:21;0.77;;;0.20;;
45043;SDS011;30784;48.490;9.688;2023-05-10T12:10:03;0.98;;;0.30;;
45043;SDS011;30784;48.490;9.688;2023-05-10T12:12:39;2.10;;;0.55;;
45043;SDS011;30784;48.490;9.688;2023-05-10T12:15:22;1.30;;;0.38;;
45043;SDS011;30784;48.490;9.688;2023-05-10T12:17:49;2.10;;;0.40;;
45043;SDS011;30784;48.490;9.688;2023-05-10T12:20:16;1.83;;;0.20;;
45043;SDS011;30784;48.490;9.688;2023-05-10T12:22:49;2.13;;;0.50;;
45043;SDS011;30784;48.490;9.688;2023-05-10T12:25:15;1.00;;;0.30;;
45043;SDS011;30784;48.490;9.688;2023-05-10T12:27:51;0.40;;;0.30;;
45043;SDS011;30784;48.490;9.688;2023-05-10T12:30:28;1.70;;;0.40;;
45043;SDS011;30784;48.490;9.688;2023-05-10T12:32:59;2.30;;;0.40;;
45043;SDS011;30784;48.490;9.688;2023-05-10T12:35:26;2.97;;;0.52;;
45043;SDS011;30784;48.490;9.688;2023-05-10T12:37:54;2.10;;;0.38;;
45043;SDS011;30784;48.490;9.688;2023-05-10T12:40:20;0.82;;;0.30;;
45043;SDS011;30784;48.490;9.688;2023-05-10T12:42:45;0.95;;;0.22;;
45043;SDS011;30784;48.490;9.688;2023-05-10T12:45:11;1.92;;;0.40;;
45043;SDS011;30784;48.490;9.688;2023-05-10T12:47:37;1.52;;;0.43;;
45043;SDS011;30784;48.490;9.688;2023-05-10T12:50:03;2.15;;;0.30;;
45043;SDS011;30784;48.490;9.688;2023-05-10T12:52:30;2.08;;;0.43;;
45043;SDS011;30784;48.490;9.688;2023-05-10T12:54:57;1.23;;;0.40;;
45043;SDS011;30784;48.490;9.688;2023-05-10T12:57:23;2.03;;;0.40;;
45043;SDS011;30784;48.490;9.688;2023-05-10T12:59:49;1.48;;;0.43;;
45043;SDS011;30784;48.490;9.688;2023-05-10T13:02:15;1.92;;;0.40;;
45043;SDS011;30784;48.490;9.688;2023-05-10T13:04:42;2.40;;;0.47;;
45043;SDS011;30784;48.490;9.688;2023-05-10T13:07:09;4.25;;;0.60;;
45043;SDS011;30784;48.490;9.688;2023-05-10T13:09:35;3.88;;;0.57;;
45043;SDS011;30784;48.490;9.688;2023-05-10T13:12:00;2.10;;;0.55;;
45043;SDS011;30784;48.490;9.688;2023-05-10T13:14:27;1.30;;;0.40;;
45043;SDS011;30784;48.490;9.688;2023-05-10T13:16:52;2.25;;;0.45;;
45043;SDS011;30784;48.490;9.688;2023-05-10T13:19:18;1.85;;;0.30;;
45043;SDS011;30784;48.490;9.688;2023-05-10T13:21:44;0.98;;;0.40;;
45043;SDS011;30784;48.490;9.688;2023-05-10T13:24:10;1.45;;;0.32;;
45043;SDS011;30784;48.490;9.688;2023-05-10T13:26:38;1.30;;;0.30;;
45043;SDS011;30784;48.490;9.688;2023-05-10T13:29:04;1.35;;;0.60;;
45043;SDS011;30784;48.490;9.688;2023-05-10T13:31:30;1.67;;;0.40;;
45043;SDS011;30784;48.490;9.688;2023-05-10T13:33:55;1.20;;;0.30;;
45043;SDS011;30784;48.490;9.688;2023-05-10T13:36:21;1.50;;;0.30;;
45043;SDS011;30784;48.490;9.688;2023-05-10T13:38:47;2.75;;;0.40;;
45043;SDS011;30784;48.490;9.688;2023-05-10T13:41:13;1.40;;;0.60;;
45043;SDS011;30784;48.490;9.688;2023-05-10T13:43:39;2.22;;;0.70;;
45043;SDS011;30784;48.490;9.688;2023-05-10T13:46:04;2.65;;;0.77;;
45043;SDS011;30784;48.490;9.688;2023-05-10T13:48:30;2.40;;;0.70;;
45043;SDS011;30784;48.490;9.688;2023-05-10T13:50:56;2.40;;;0.50;;
45043;SDS011;30784;48.490;9.688;2023-05-10T13:53:21;2.92;;;0.70;;
45043;SDS011;30784;48.490;9.688;2023-05-10T13:55:47;3.55;;;0.80;;
45043;SDS011;30784;48.490;9.688;2023-05-10T13:58:13;3.67;;;0.80;;
45043;SDS011;30784;48.490;9.688;2023-05-10T14:00:38;3.72;;;0.80;;
45043;SDS011;30784;48.490;9.688;2023-05-10T14:03:04;2.03;;;0.50;;
45043;SDS011;30784;48.490;9.688;2023-05-10T14:05:31;4.43;;;0.70;;
45043;SDS011;30784;48.490;9.688;2023-05-10T14:07:56;2.67;;;0.60;;
45043;SDS011;30784;48.490;9.688;2023-05-10T14:10:22;3.05;;;0.73;;
45043;SDS011;30784;48.490;9.688;2023-05-10T14:12:47;2.22;;;0.52;;
45043;SDS011;30784;48.490;9.688;2023-05-10T14:15:14;2.03;;;0.40;;
45043;SDS011;30784;48.490;9.688;2023-05-10T14:17:39;3.00;;;0.60;;
45043;SDS011;30784;48.490;9.688;2023-05-10T14:20:05;2.13;;;0.60;;
45043;SDS011;30784;48.490;9.688;2023-05-10T14:22:31;2.95;;;0.60;;
45043;SDS011;30784;48.490;9.688;2023-05-10T14:24:57;2.70;;;0.60;;
45043;SDS011;30784;48.490;9.688;2023-05-10T14:27:23;2.30;;;0.60;;
45043;SDS011;30784;48.490;9.688;2023-05-10T14:29:49;4.75;;;0.60;;
45043;SDS011;30784;48.490;9.688;2023-05-10T14:32:14;3.53;;;0.70;;
45043;SDS011;30784;48.490;9.688;2023-05-10T14:34:40;3.50;;;0.75;;
45043;SDS011;30784;48.490;9.688;2023-05-10T14:37:06;2.95;;;0.88;;
45043;SDS011;30784;48.490;9.688;2023-05-10T14:39:31;1.45;;;0.50;;
45043;SDS011;30784;48.490;9.688;2023-05-10T14:41:58;1.17;;;0.50;;
45043;SDS011;30784;48.490;9.688;2023-05-10T14:44:23;1.63;;;0.47;;
45043;SDS011;30784;48.490;9.688;2023-05-10T14:46:49;1.67;;;0.60;;
45043;SDS011;30784;48.490;9.688;2023-05-10T14:49:14;3.22;;;0.73;;
45043;SDS011;30784;48.490;9.688;2023-05-10T14:51:40;2.65;;;0.68;;
45043;SDS011;30784;48.490;9.688;2023-05-10T14:54:06;3.67;;;1.02;;
45043;SDS011;30784;48.490;9.688;2023-05-10T14:56:31;3.60;;;0.90;;
45043;SDS011;30784;48.490;9.688;2023-05-10T14:59:00;2.97;;;0.70;;
45043;SDS011;30784;48.490;9.688;2023-05-10T15:01:25;3.25;;;0.80;;
45043;SDS011;30784;48.490;9.688;2023-05-10T15:03:51;3.50;;;0.75;;
45043;SDS011;30784;48.490;9.688;2023-05-10T15:06:16;2.33;;;0.60;;
45043;SDS011;30784;48.490;9.688;2023-05-10T15:08:42;2.40;;;0.65;;
45043;SDS011;30784;48.490;9.688;2023-05-10T15:11:08;3.60;;;0.75;;
45043;SDS011;30784;48.490;9.688;2023-05-10T15:13:33;9.45;;;3.15;;
45043;SDS011;30784;48.490;9.688;2023-05-10T15:15:59;9.18;;;2.70;;
45043;SDS011;30784;48.490;9.688;2023-05-10T15:18:24;5.80;;;1.45;;
45043;SDS011;30784;48.490;9.688;2023-05-10T15:20:50;5.90;;;1.00;;
45043;SDS011;30784;48.490;9.688;2023-05-10T15:23:16;4.30;;;0.82;;
45043;SDS011;30784;48.490;9.688;2023-05-10T15:25:41;2.90;;;0.70;;
45043;SDS011;30784;48.490;9.688;2023-05-10T15:28:07;2.55;;;0.68;;